Time;durP1;ratioP1;P1;durP2;ratioP2;P2;SDS_P1;SDS_P2;PMS_P1;PMS_P2;Temp;Humidity;BMP_temperature;BMP_pressure;BME280_temperature;BME280_humidity;BME280_pressure;Samples;Min_cycle;Max_cycle;Signal;HPM_P1;HPM_P2
2023/04/14 00:00:34;;;;;;;16.37;11.50;;;;;;;;;;5076222;28;20455;-60
2023/04/14 00:03:01;;;;;;;12.70;11.47;;;;;;;;;;5076181;28;20452;-60
2023/04/14 00:05:29;;;;;;;13.30;10.60;;;;;;;;;;5076082;28;20538;-60
2023/04/14 00:07:56;;;;;;;13.53;11.07;;;;;;;;;;5075973;28;21010;-60
2023/04/14 00:10:23;;;;;;;16.03;11.73;;;;;;;;;;5075910;28;20454;-60
2023/04/14 00:12:50;;;;;;;13.30;11.67;;;;;;;;;;5076055;28;20454;-60
2023/04/14 00:15:17;;;;;;;13.53;11.97;;;;;;;;;;5075907;28;20526;-61
2023/04/14 00:17:46;;;;;;;15.13;13.17;;;;;;;;;;5075787;28;20454;-60
2023/04/14 00:20:13;;;;;;;12.87;11.57;;;;;;;;;;5075792;28;20452;-60
2023/04/14 00:22:40;;;;;;;13.00;11.10;;;;;;;;;;5075714;28;20806;-60
2023/04/14 00:25:07;;;;;;;12.70;11.40;;;;;;;;;;5075885;28;20448;-60
2023/04/14 00:27:34;;;;;;;14.23;10.77;;;;;;;;;;5074596;28;20444;-60
2023/04/14 00:30:01;;;;;;;11.87;10.20;;;;;;;;;;5075753;28;20530;-60
2023/04/14 00:32:28;;;;;;;14.30;9.60;;;;;;;;;;5075607;28;20813;-60
2023/04/14 00:34:56;;;;;;;11.33;10.20;;;;;;;;;;5075402;28;20554;-59
2023/04/14 00:37:23;;;;;;;13.50;10.37;;;;;;;;;;5075469;28;20513;-59
2023/04/14 00:39:50;;;;;;;11.27;9.63;;;;;;;;;;5075555;28;20454;-59
2023/04/14 00:42:17;;;;;;;12.87;10.67;;;;;;;;;;5075479;28;20539;-59
2023/04/14 00:44:46;;;;;;;12.77;9.93;;;;;;;;;;5075151;28;20475;-59
2023/04/14 00:47:13;;;;;;;12.80;10.20;;;;;;;;;;5075376;28;20812;-59
2023/04/14 00:49:40;;;;;;;12.63;10.27;;;;;;;;;;5075158;28;20464;-60
2023/04/14 00:52:08;;;;;;;11.70;9.17;;;;;;;;;;5075437;28;20444;-59
2023/04/14 00:54:36;;;;;;;11.20;10.10;;;;;;;;;;5075041;28;20475;-60
2023/04/14 00:57:04;;;;;;;10.73;9.60;;;;;;;;;;5075238;28;20452;-60
2023/04/14 00:59:31;;;;;;;11.37;10.00;;;;;;;;;;5075133;28;20494;-60
2023/04/14 01:01:59;;;;;;;15.50;10.73;;;;;;;;;;5074987;28;20483;-60
2023/04/14 01:04:26;;;;;;;10.90;9.80;;;;;;;;;;5074936;28;20458;-60
2023/04/14 01:06:53;;;;;;;11.67;10.47;;;;;;;;;;5075118;28;20502;-60
2023/04/14 01:09:21;;;;;;;11.80;10.20;;;;;;;;;;5075066;28;20555;-60
2023/04/14 01:11:52;;;;;;;12.57;10.60;;;;;;;;;;5074866;28;20490;-60
2023/04/14 01:14:22;;;;;;;9.80;8.80;;;;;;;;;;5074713;28;20467;-60
2023/04/14 01:16:50;;;;;;;11.57;9.83;;;;;;;;;;5074582;28;20961;-60
2023/04/14 01:19:30;;;;;;;11.80;10.20;;;;;;;;;;5074802;28;20443;-60
2023/04/14 01:22:02;;;;;;;11.00;9.40;;;;;;;;;;5074732;28;20539;-60
2023/04/14 01:24:41;;;;;;;12.10;10.00;;;;;;;;;;5074562;28;20456;-60
2023/04/14 01:27:18;;;;;;;11.20;8.57;;;;;;;;;;5074449;28;20458;-60
2023/04/14 01:30:06;;;;;;;11.77;8.10;;;;;;;;;;5074390;28;20973;-60
2023/04/14 01:32:34;;;;;;;9.57;7.83;;;;;;;;;;5069649;28;20509;-60
2023/04/14 01:35:05;;;;;;;11.43;8.60;;;;;;;;;;5074394;28;20578;-60
2023/04/14 01:37:33;;;;;;;9.40;8.60;;;;;;;;;;5074322;28;20458;-60
2023/04/14 01:40:02;;;;;;;8.00;7.20;;;;;;;;;;5074204;28;20459;-60
2023/04/14 01:42:32;;;;;;;8.40;7.30;;;;;;;;;;5074389;28;20848;-60
2023/04/14 01:45:00;;;;;;;14.10;7.20;;;;;;;;;;5073901;28;20888;-60
2023/04/14 01:47:28;;;;;;;7.40;6.63;;;;;;;;;;5074024;28;20448;-60
2023/04/14 01:49:57;;;;;;;8.30;7.10;;;;;;;;;;5074135;28;20475;-60
2023/04/14 01:52:24;;;;;;;9.37;6.87;;;;;;;;;;5074172;28;20534;-60
2023/04/14 01:54:52;;;;;;;8.20;6.27;;;;;;;;;;5074018;28;20475;-60
2023/04/14 01:57:21;;;;;;;6.20;5.60;;;;;;;;;;5074022;28;20455;-60
2023/04/14 01:59:49;;;;;;;6.87;6.10;;;;;;;;;;5073950;28;20863;-60
2023/04/14 02:02:16;;;;;;;7.10;6.23;;;;;;;;;;5073807;28;20444;-60
2023/04/14 02:04:44;;;;;;;9.20;6.07;;;;;;;;;;5073698;28;20543;-61
2023/04/14 02:07:13;;;;;;;10.10;5.70;;;;;;;;;;5073904;28;20448;-60
2023/04/14 02:09:41;;;;;;;5.63;5.23;;;;;;;;;;5073834;28;20891;-59
2023/04/14 02:12:08;;;;;;;7.07;6.50;;;;;;;;;;5073694;28;20491;-59
2023/04/14 02:14:36;;;;;;;6.60;5.60;;;;;;;;;;5073612;28;20472;-59
2023/04/14 02:17:04;;;;;;;6.40;5.70;;;;;;;;;;5073532;28;20452;-59
2023/04/14 02:19:31;;;;;;;6.30;5.80;;;;;;;;;;5073439;28;20463;-59
2023/04/14 02:21:59;;;;;;;5.90;5.40;;;;;;;;;;5073544;28;20448;-59
2023/04/14 02:24:27;;;;;;;5.03;4.63;;;;;;;;;;5073117;28;20452;-60
2023/04/14 02:26:56;;;;;;;5.07;4.67;;;;;;;;;;5073003;28;20448;-59
2023/04/14 02:29:24;;;;;;;7.60;4.93;;;;;;;;;;5072911;28;20452;-60
2023/04/14 02:31:54;;;;;;;6.10;5.03;;;;;;;;;;5072831;28;20538;-60
2023/04/14 02:34:24;;;;;;;5.47;4.93;;;;;;;;;;5072852;28;20547;-59
2023/04/14 02:36:53;;;;;;;6.10;5.60;;;;;;;;;;5072878;28;20780;-60
2023/04/14 02:39:22;;;;;;;6.20;4.40;;;;;;;;;;5072738;28;20542;-60
2023/04/14 02:41:54;;;;;;;5.50;4.87;;;;;;;;;;5072755;28;20481;-60
2023/04/14 02:44:23;;;;;;;5.40;4.90;;;;;;;;;;5072508;28;20486;-59
2023/04/14 02:46:54;;;;;;;5.37;4.87;;;;;;;;;;5072531;28;20973;-60
2023/04/14 02:49:22;;;;;;;5.20;4.73;;;;;;;;;;5072777;28;20538;-60
2023/04/14 02:51:49;;;;;;;4.97;4.57;;;;;;;;;;5071983;28;20534;-60
2023/04/14 02:54:17;;;;;;;4.27;3.87;;;;;;;;;;5072653;28;20856;-60
2023/04/14 02:56:44;;;;;;;5.10;4.43;;;;;;;;;;5072434;28;20483;-62
2023/04/14 02:59:13;;;;;;;6.77;5.00;;;;;;;;;;5072823;28;20932;-60
2023/04/14 03:01:40;;;;;;;5.07;4.40;;;;;;;;;;5072399;28;20947;-60
2023/04/14 03:04:07;;;;;;;4.93;4.53;;;;;;;;;;5072483;28;20448;-60
2023/04/14 03:06:35;;;;;;;4.93;4.27;;;;;;;;;;5072472;28;20448;-60
2023/04/14 03:09:04;;;;;;;5.53;4.90;;;;;;;;;;5072406;28;20450;-60
2023/04/14 03:11:32;;;;;;;4.70;4.30;;;;;;;;;;5072322;28;20538;-60
2023/04/14 03:13:59;;;;;;;6.73;4.33;;;;;;;;;;5072643;28;20447;-60
2023/04/14 03:16:29;;;;;;;4.23;3.83;;;;;;;;;;5072299;28;20546;-60
2023/04/14 03:18:56;;;;;;;5.37;4.83;;;;;;;;;;5072533;28;20463;-60
2023/04/14 03:21:25;;;;;;;4.67;4.07;;;;;;;;;;5072359;28;20530;-60
2023/04/14 03:23:54;;;;;;;4.33;4.03;;;;;;;;;;5072418;28;20816;-60
2023/04/14 03:26:21;;;;;;;4.10;3.70;;;;;;;;;;5072479;28;20451;-60
2023/04/14 03:28:52;;;;;;;4.20;3.80;;;;;;;;;;5072196;28;20947;-60
2023/04/14 03:31:19;;;;;;;3.20;3.00;;;;;;;;;;5072379;28;20464;-60
2023/04/14 03:33:54;;;;;;;4.17;3.83;;;;;;;;;;5072186;28;20454;-60
2023/04/14 03:36:21;;;;;;;3.80;3.50;;;;;;;;;;5072101;28;20511;-60
2023/04/14 03:38:49;;;;;;;3.73;3.43;;;;;;;;;;5072111;28;20960;-59
2023/04/14 03:41:20;;;;;;;9.77;3.43;;;;;;;;;;5072257;28;20448;-60
2023/04/14 03:43:48;;;;;;;3.67;3.37;;;;;;;;;;5072045;28;20499;-59
2023/04/14 03:46:15;;;;;;;3.83;3.53;;;;;;;;;;5072166;28;20781;-59
2023/04/14 03:48:43;;;;;;;3.57;3.27;;;;;;;;;;5072108;28;20784;-60
2023/04/14 03:51:13;;;;;;;4.40;4.00;;;;;;;;;;5072062;28;20950;-60
2023/04/14 03:53:41;;;;;;;4.00;3.10;;;;;;;;;;5072203;28;20452;-60
2023/04/14 03:56:09;;;;;;;3.87;3.50;;;;;;;;;;5072086;28;20650;-60
2023/04/14 03:58:37;;;;;;;3.23;3.03;;;;;;;;;;5072184;28;21042;-60
2023/04/14 04:01:04;;;;;;;4.60;3.37;;;;;;;;;;5072112;28;20563;-60
2023/04/14 04:03:32;;;;;;;3.83;3.50;;;;;;;;;;5075277;28;20454;-59
2023/04/14 04:06:00;;;;;;;3.40;3.10;;;;;;;;;;5075625;28;20943;-60
2023/04/14 04:08:28;;;;;;;4.57;3.30;;;;;;;;;;5075679;28;20447;-60
2023/04/14 04:10:56;;;;;;;4.17;3.30;;;;;;;;;;5075656;28;20494;-61
2023/04/14 04:13:24;;;;;;;4.27;3.80;;;;;;;;;;5075529;28;20448;-60
2023/04/14 04:15:51;;;;;;;6.43;3.50;;;;;;;;;;5075246;28;20993;-60
2023/04/14 04:18:18;;;;;;;5.00;3.10;;;;;;;;;;5075526;28;20455;-59
2023/04/14 04:20:47;;;;;;;3.67;3.33;;;;;;;;;;5075500;28;20455;-60
2023/04/14 04:23:15;;;;;;;3.73;3.30;;;;;;;;;;5075356;28;20448;-60
2023/04/14 04:25:43;;;;;;;4.83;4.53;;;;;;;;;;5075422;28;20455;-60
2023/04/14 04:28:10;;;;;;;6.37;5.73;;;;;;;;;;5075205;28;20539;-60
2023/04/14 04:30:40;;;;;;;5.20;4.67;;;;;;;;;;5074951;28;20536;-60
2023/04/14 04:33:07;;;;;;;3.97;3.67;;;;;;;;;;5075305;28;20443;-61
2023/04/14 04:35:36;;;;;;;3.50;3.20;;;;;;;;;;5075049;28;20471;-61
2023/04/14 04:38:04;;;;;;;3.70;3.40;;;;;;;;;;5075137;28;20447;-61
2023/04/14 04:40:36;;;;;;;4.37;3.97;;;;;;;;;;5075017;28;20448;-61
2023/04/14 04:43:04;;;;;;;4.17;3.00;;;;;;;;;;5074798;28;20494;-61
2023/04/14 04:45:48;;;;;;;5.83;2.90;;;;;;;;;;5075246;28;20490;-61
2023/04/14 04:48:15;;;;;;;7.10;3.70;;;;;;;;;;5075067;28;20807;-62
2023/04/14 04:50:42;;;;;;;3.90;3.60;;;;;;;;;;5075098;28;20889;-60
2023/04/14 04:53:11;;;;;;;4.97;4.57;;;;;;;;;;5074762;28;20935;-61
2023/04/14 04:55:37;;;;;;;4.50;3.73;;;;;;;;;;5074648;28;20831;-61
2023/04/14 04:58:06;;;;;;;3.50;3.07;;;;;;;;;;5074818;28;20882;-61
2023/04/14 05:00:33;;;;;;;5.23;3.90;;;;;;;;;;5074700;28;20566;-61
2023/04/14 05:03:00;;;;;;;4.93;3.93;;;;;;;;;;5074623;28;20448;-61
2023/04/14 05:05:27;;;;;;;3.43;3.13;;;;;;;;;;5074560;28;20577;-61
2023/04/14 05:07:54;;;;;;;4.50;3.37;;;;;;;;;;5074333;28;20473;-61
2023/04/14 05:10:21;;;;;;;4.43;3.70;;;;;;;;;;5074612;28;20562;-61
2023/04/14 05:12:48;;;;;;;3.93;3.27;;;;;;;;;;5074441;28;20483;-61
2023/04/14 05:15:17;;;;;;;5.10;3.53;;;;;;;;;;5073715;28;20444;-62
2023/04/14 05:17:44;;;;;;;3.97;3.73;;;;;;;;;;5074304;28;20954;-62
2023/04/14 05:20:11;;;;;;;6.10;4.27;;;;;;;;;;5074032;28;20503;-61
2023/04/14 05:22:38;;;;;;;10.70;4.00;;;;;;;;;;5074000;28;20811;-60
2023/04/14 05:25:06;;;;;;;4.27;3.83;;;;;;;;;;5074178;28;20543;-60
2023/04/14 05:27:33;;;;;;;6.07;3.90;;;;;;;;;;5074131;28;20459;-60
2023/04/14 05:30:00;;;;;;;16.13;10.80;;;;;;;;;;5074108;28;20538;-60
2023/04/14 05:32:29;;;;;;;4.87;3.53;;;;;;;;;;5073927;28;20455;-60
2023/04/14 05:34:56;;;;;;;4.57;3.83;;;;;;;;;;5073910;28;20448;-60
2023/04/14 05:37:23;;;;;;;2.80;2.53;;;;;;;;;;5073785;28;20487;-59
2023/04/14 05:39:50;;;;;;;3.50;2.60;;;;;;;;;;5073965;28;20533;-60
2023/04/14 05:42:17;;;;;;;6.60;3.80;;;;;;;;;;5073912;28;20452;-60
2023/04/14 05:44:44;;;;;;;7.23;3.83;;;;;;;;;;5073419;28;20480;-61
2023/04/14 05:47:11;;;;;;;5.20;3.50;;;;;;;;;;5073551;28;20947;-61
2023/04/14 05:49:39;;;;;;;5.13;3.33;;;;;;;;;;5073418;28;20452;-61
2023/04/14 05:52:06;;;;;;;10.30;5.67;;;;;;;;;;5073741;28;20534;-61
2023/04/14 05:54:34;;;;;;;11.57;6.23;;;;;;;;;;5073614;28;20443;-61
2023/04/14 05:57:00;;;;;;;19.67;9.57;;;;;;;;;;5073339;28;20480;-60
2023/04/14 05:59:27;;;;;;;26.03;13.97;;;;;;;;;;5073398;28;20543;-61
2023/04/14 06:01:54;;;;;;;30.97;15.80;;;;;;;;;;5073271;28;20483;-61
2023/04/14 06:04:21;;;;;;;21.70;13.00;;;;;;;;;;5073216;28;20455;-61
2023/04/14 06:06:50;;;;;;;28.87;16.73;;;;;;;;;;5073537;28;20454;-60
2023/04/14 06:09:17;;;;;;;22.03;12.53;;;;;;;;;;5073404;28;20547;-61
2023/04/14 06:11:43;;;;;;;19.30;11.20;;;;;;;;;;5073288;28;20451;-61
2023/04/14 06:14:10;;;;;;;9.83;7.27;;;;;;;;;;5073159;28;20452;-61
2023/04/14 06:16:37;;;;;;;15.67;6.67;;;;;;;;;;5073032;28;20486;-60
2023/04/14 06:19:04;;;;;;;8.20;5.97;;;;;;;;;;5073004;28;20894;-61
2023/04/14 06:21:31;;;;;;;7.40;5.43;;;;;;;;;;5073061;28;20531;-61
2023/04/14 06:24:00;;;;;;;4.63;4.10;;;;;;;;;;5073173;28;20452;-61
2023/04/14 06:26:27;;;;;;;8.47;5.10;;;;;;;;;;5072091;28;20489;-61
2023/04/14 06:28:54;;;;;;;7.40;4.03;;;;;;;;;;5072927;28;20860;-61
2023/04/14 06:31:21;;;;;;;3.63;3.33;;;;;;;;;;5072775;28;20452;-60
2023/04/14 06:33:48;;;;;;;3.43;3.13;;;;;;;;;;5072627;28;20444;-61
2023/04/14 06:36:17;;;;;;;4.37;3.97;;;;;;;;;;5072829;28;20475;-61
2023/04/14 06:38:44;;;;;;;7.23;4.17;;;;;;;;;;5072701;28;20510;-61
2023/04/14 06:41:12;;;;;;;5.87;4.70;;;;;;;;;;5072540;28;20448;-61
2023/04/14 06:43:41;;;;;;;6.03;4.60;;;;;;;;;;5072497;28;20478;-60
2023/04/14 06:46:08;;;;;;;7.10;5.07;;;;;;;;;;5072575;28;20456;-60
2023/04/14 06:48:35;;;;;;;12.37;7.97;;;;;;;;;;5073012;28;20531;-60
2023/04/14 06:51:02;;;;;;;15.80;10.47;;;;;;;;;;5072803;28;20475;-60
2023/04/14 06:53:29;;;;;;;18.03;11.30;;;;;;;;;;5072771;28;20452;-60
2023/04/14 06:55:59;;;;;;;19.80;10.60;;;;;;;;;;5072655;28;20455;-61
2023/04/14 06:58:28;;;;;;;15.20;8.80;;;;;;;;;;5072960;28;20542;-61
2023/04/14 07:00:56;;;;;;;10.60;7.47;;;;;;;;;;5072668;28;20559;-57
2023/04/14 07:03:23;;;;;;;6.83;5.90;;;;;;;;;;5072699;28;20454;-60
2023/04/14 07:05:50;;;;;;;9.53;7.63;;;;;;;;;;5072667;28;20452;-60
2023/04/14 07:08:17;;;;;;;6.20;5.37;;;;;;;;;;5072542;28;20484;-59
2023/04/14 07:10:44;;;;;;;6.67;5.30;;;;;;;;;;5072332;28;20700;-59
2023/04/14 07:13:11;;;;;;;7.93;4.87;;;;;;;;;;5072186;28;20467;-59
2023/04/14 07:15:39;;;;;;;5.70;4.80;;;;;;;;;;5072712;28;20480;-62
2023/04/14 07:18:06;;;;;;;9.77;6.73;;;;;;;;;;5072481;28;20483;-60
2023/04/14 07:20:33;;;;;;;7.40;5.07;;;;;;;;;;5072166;28;20495;-59
2023/04/14 07:23:00;;;;;;;8.80;7.10;;;;;;;;;;5072187;28;20448;-60
2023/04/14 07:25:27;;;;;;;11.33;6.93;;;;;;;;;;5072041;28;20555;-60
2023/04/14 07:27:54;;;;;;;14.37;9.17;;;;;;;;;;5072349;28;20448;-58
2023/04/14 07:30:21;;;;;;;8.17;6.73;;;;;;;;;;5072184;28;20490;-60
2023/04/14 07:32:50;;;;;;;7.00;6.33;;;;;;;;;;5072253;28;20444;-58
2023/04/14 07:35:17;;;;;;;7.50;6.33;;;;;;;;;;5072307;28;20455;-61
2023/04/14 07:37:44;;;;;;;6.07;5.00;;;;;;;;;;5074555;28;20636;-60
2023/04/14 07:40:11;;;;;;;6.50;5.90;;;;;;;;;;5075748;28;20534;-58
2023/04/14 07:42:38;;;;;;;7.43;5.43;;;;;;;;;;5076070;28;20547;-59
2023/04/14 07:45:05;;;;;;;9.83;6.70;;;;;;;;;;5076150;28;20444;-59
2023/04/14 07:47:32;;;;;;;6.90;6.40;;;;;;;;;;5075970;28;20537;-61
2023/04/14 07:50:01;;;;;;;8.47;7.70;;;;;;;;;;5075757;28;20814;-60
2023/04/14 07:52:28;;;;;;;11.93;8.90;;;;;;;;;;5075862;28;20448;-58
2023/04/14 07:54:55;;;;;;;8.83;7.80;;;;;;;;;;5075682;28;20542;-58
2023/04/14 07:57:22;;;;;;;12.17;8.57;;;;;;;;;;5075754;28;20889;-61
2023/04/14 07:59:48;;;;;;;7.63;6.87;;;;;;;;;;5075577;28;20910;-58
2023/04/14 08:02:16;;;;;;;7.47;6.63;;;;;;;;;;5075562;28;20542;-59
2023/04/14 08:04:43;;;;;;;6.83;6.10;;;;;;;;;;5075645;28;20458;-58
2023/04/14 08:07:11;;;;;;;7.47;6.78;;;;;;;;;;5075073;28;20489;-59
2023/04/14 08:09:38;;;;;;;7.60;5.73;;;;;;;;;;5075531;28;20193;-60
2023/04/14 08:12:05;;;;;;;6.70;6.20;;;;;;;;;;5075392;28;20505;-60
2023/04/14 08:14:32;;;;;;;9.47;7.10;;;;;;;;;;5075289;28;20480;-58
2023/04/14 08:16:59;;;;;;;16.90;10.13;;;;;;;;;;5075219;28;20978;-60
2023/04/14 08:19:26;;;;;;;13.13;10.07;;;;;;;;;;5075009;28;20447;-59
2023/04/14 08:21:53;;;;;;;8.00;7.00;;;;;;;;;;5075138;28;20448;-62
2023/04/14 08:24:21;;;;;;;8.57;6.83;;;;;;;;;;5075247;28;20458;-59
2023/04/14 08:26:48;;;;;;;6.50;5.90;;;;;;;;;;5075091;28;20967;-61
2023/04/14 08:29:15;;;;;;;6.97;6.30;;;;;;;;;;5075120;28;20458;-60
2023/04/14 08:31:42;;;;;;;7.07;6.13;;;;;;;;;;5074915;28;20458;-61
2023/04/14 08:34:09;;;;;;;7.10;6.40;;;;;;;;;;5074837;28;20443;-61
2023/04/14 08:36:36;;;;;;;10.23;7.03;;;;;;;;;;5074835;28;20570;-58
2023/04/14 08:39:03;;;;;;;8.90;6.50;;;;;;;;;;5075205;28;20448;-55
2023/04/14 08:41:33;;;;;;;9.80;7.10;;;;;;;;;;5074824;28;20455;-61
2023/04/14 08:44:00;;;;;;;10.77;7.13;;;;;;;;;;5074982;28;20571;-59
2023/04/14 08:46:28;;;;;;;6.97;5.80;;;;;;;;;;5074960;28;20448;-60
2023/04/14 08:48:59;;;;;;;7.80;5.90;;;;;;;;;;5074300;28;20432;-60
2023/04/14 08:51:30;;;;;;;13.50;9.57;;;;;;;;;;5074976;28;20455;-64
2023/04/14 08:53:58;;;;;;;12.17;7.27;;;;;;;;;;5074788;28;20456;-60
2023/04/14 08:56:27;;;;;;;9.57;6.70;;;;;;;;;;5074902;28;20475;-61
2023/04/14 08:58:56;;;;;;;8.53;6.50;;;;;;;;;;5074630;28;20451;-62
2023/04/14 09:01:23;;;;;;;6.50;5.90;;;;;;;;;;5074418;28;20502;-62
2023/04/14 09:03:50;;;;;;;7.30;6.60;;;;;;;;;;5074502;28;20452;-62
2023/04/14 09:06:18;;;;;;;7.67;6.57;;;;;;;;;;5074608;28;20543;-62
2023/04/14 09:08:45;;;;;;;6.83;5.97;;;;;;;;;;5074553;28;20452;-63
2023/04/14 09:11:12;;;;;;;8.93;6.27;;;;;;;;;;5074558;28;20448;-64
2023/04/14 09:13:39;;;;;;;7.40;6.63;;;;;;;;;;5074411;28;20457;-60
2023/04/14 09:16:08;;;;;;;7.83;6.27;;;;;;;;;;5074208;28;20447;-63
2023/04/14 09:18:35;;;;;;;8.33;6.60;;;;;;;;;;5074006;28;20482;-61
2023/04/14 09:21:02;;;;;;;7.93;6.53;;;;;;;;;;5073921;28;20493;-61
2023/04/14 09:23:30;;;;;;;7.33;6.73;;;;;;;;;;5074014;28;20448;-62
2023/04/14 09:25:57;;;;;;;6.87;6.17;;;;;;;;;;5074025;28;20452;-61
2023/04/14 09:28:24;;;;;;;6.47;5.97;;;;;;;;;;5073851;28;20562;-62
2023/04/14 09:30:51;;;;;;;7.20;6.50;;;;;;;;;;5073950;28;20483;-62
2023/04/14 09:33:20;;;;;;;6.53;6.03;;;;;;;;;;5073931;28;20458;-61
2023/04/14 09:35:48;;;;;;;7.27;6.57;;;;;;;;;;5073998;28;20854;-61
2023/04/14 09:38:15;;;;;;;8.00;6.73;;;;;;;;;;5073837;28;20480;-60
2023/04/14 09:40:43;;;;;;;9.20;7.20;;;;;;;;;;5073848;28;20451;-60
2023/04/14 09:43:23;;;;;;;7.10;6.50;;;;;;;;;;5073325;28;20886;-60
2023/04/14 09:45:50;;;;;;;6.90;6.30;;;;;;;;;;5073637;28;20538;-60
2023/04/14 09:48:17;;;;;;;9.13;7.10;;;;;;;;;;5073690;28;20452;-61
2023/04/14 09:50:58;;;;;;;8.20;7.43;;;;;;;;;;5073558;28;20464;-63
2023/04/14 09:53:26;;;;;;;7.73;6.60;;;;;;;;;;5073509;28;20497;-63
2023/04/14 09:55:53;;;;;;;7.00;6.30;;;;;;;;;;5073708;28;20858;-61
2023/04/14 09:58:21;;;;;;;6.30;5.80;;;;;;;;;;5073568;28;20480;-61
2023/04/14 10:00:48;;;;;;;8.20;6.07;;;;;;;;;;5073183;28;20597;-58
2023/04/14 10:03:15;;;;;;;7.43;6.63;;;;;;;;;;5072964;28;20543;-57
2023/04/14 10:05:46;;;;;;;8.90;6.70;;;;;;;;;;5072831;28;20456;-58
2023/04/14 10:08:15;;;;;;;6.93;6.20;;;;;;;;;;5073662;28;20462;-57
2023/04/14 10:10:42;;;;;;;6.83;6.07;;;;;;;;;;5073385;28;20480;-58
2023/04/14 10:13:13;;;;;;;6.53;5.83;;;;;;;;;;5072929;28;20543;-57
2023/04/14 10:15:41;;;;;;;6.77;6.10;;;;;;;;;;5073217;28;20463;-56
2023/04/14 10:18:08;;;;;;;7.33;6.67;;;;;;;;;;5072821;28;20529;-57
2023/04/14 10:20:36;;;;;;;7.70;7.00;;;;;;;;;;5072936;28;20886;-57
2023/04/14 10:23:03;;;;;;;7.03;6.33;;;;;;;;;;5073287;28;20876;-56
2023/04/14 10:25:32;;;;;;;6.53;5.93;;;;;;;;;;5073208;28;21068;-57
2023/04/14 10:27:59;;;;;;;7.60;6.43;;;;;;;;;;5073155;28;20862;-56
2023/04/14 10:30:26;;;;;;;7.73;6.93;;;;;;;;;;5072888;28;20914;-58
2023/04/14 10:32:53;;;;;;;7.20;6.50;;;;;;;;;;5073082;28;20478;-55
2023/04/14 10:35:21;;;;;;;6.93;6.30;;;;;;;;;;5072849;28;20527;-56
2023/04/14 10:37:51;;;;;;;7.13;6.43;;;;;;;;;;5073177;28;20537;-58
2023/04/14 10:40:18;;;;;;;6.50;6.00;;;;;;;;;;5073274;28;20555;-57
2023/04/14 10:42:53;;;;;;;10.17;6.20;;;;;;;;;;5072910;28;20483;-56
2023/04/14 10:45:20;;;;;;;7.67;6.93;;;;;;;;;;5073079;28;20474;-57
2023/04/14 10:47:47;;;;;;;7.90;6.90;;;;;;;;;;5072886;28;20452;-55
2023/04/14 10:50:16;;;;;;;7.53;6.83;;;;;;;;;;5073195;28;20447;-57
2023/04/14 10:52:50;;;;;;;7.20;6.60;;;;;;;;;;5073082;28;20505;-58
2023/04/14 10:55:17;;;;;;;6.40;5.80;;;;;;;;;;5072928;28;20473;-57
2023/04/14 10:57:46;;;;;;;6.40;5.80;;;;;;;;;;5072680;28;20482;-57
2023/04/14 11:00:25;;;;;;;8.73;5.77;;;;;;;;;;5072849;28;20447;-56
2023/04/14 11:02:55;;;;;;;7.70;6.67;;;;;;;;;;5072975;28;20474;-58
2023/04/14 11:05:23;;;;;;;6.60;5.43;;;;;;;;;;5073224;28;20455;-53
2023/04/14 11:07:54;;;;;;;7.10;6.37;;;;;;;;;;5072962;28;20479;-53
2023/04/14 11:10:28;;;;;;;6.43;5.87;;;;;;;;;;5072745;28;20944;-58
2023/04/14 11:12:56;;;;;;;6.80;6.10;;;;;;;;;;5072387;28;20538;-58
2023/04/14 11:15:24;;;;;;;6.90;6.30;;;;;;;;;;5072949;28;20452;-58
2023/04/14 11:17:53;;;;;;;7.53;6.23;;;;;;;;;;5072530;28;20962;-57
2023/04/14 11:20:20;;;;;;;7.67;6.50;;;;;;;;;;5072785;28;20456;-58
2023/04/14 11:22:48;;;;;;;7.90;7.10;;;;;;;;;;5072674;28;20448;-57
2023/04/14 11:25:16;;;;;;;7.43;6.57;;;;;;;;;;5072457;28;20445;-58
2023/04/14 11:27:43;;;;;;;7.33;6.60;;;;;;;;;;5072644;28;20475;-57
2023/04/14 11:30:14;;;;;;;7.43;6.73;;;;;;;;;;5072649;28;20538;-57
2023/04/14 11:32:50;;;;;;;8.53;5.80;;;;;;;;;;5072414;28;20990;-57
2023/04/14 11:35:17;;;;;;;6.40;5.70;;;;;;;;;;5072561;28;20451;-56
2023/04/14 11:37:44;;;;;;;5.97;5.43;;;;;;;;;;5072296;28;20511;-57
2023/04/14 11:40:12;;;;;;;6.80;6.20;;;;;;;;;;5072863;28;20729;-57
2023/04/14 11:42:39;;;;;;;5.83;5.43;;;;;;;;;;5072355;28;20444;-57
2023/04/14 11:45:07;;;;;;;10.53;6.33;;;;;;;;;;5072470;28;20456;-54
2023/04/14 11:47:33;;;;;;;6.13;5.60;;;;;;;;;;5072376;28;20471;-59
2023/04/14 11:50:06;;;;;;;6.30;5.80;;;;;;;;;;5072365;28;20539;-58
2023/04/14 11:52:34;;;;;;;7.17;6.57;;;;;;;;;;5072441;28;20460;-58
2023/04/14 11:55:01;;;;;;;5.77;5.13;;;;;;;;;;5072465;28;20442;-58
2023/04/14 11:57:29;;;;;;;6.27;5.67;;;;;;;;;;5072091;28;20448;-58
2023/04/14 11:59:56;;;;;;;6.70;6.10;;;;;;;;;;5072364;28;20864;-56
2023/04/14 12:02:23;;;;;;;5.90;5.37;;;;;;;;;;5072228;28;20447;-57
2023/04/14 12:04:51;;;;;;;7.80;6.00;;;;;;;;;;5072171;28;20485;-57
2023/04/14 12:07:19;;;;;;;7.27;6.60;;;;;;;;;;5072448;28;20452;-57
2023/04/14 12:09:47;;;;;;;5.93;5.30;;;;;;;;;;5072340;28;20477;-57
2023/04/14 12:12:15;;;;;;;5.87;5.30;;;;;;;;;;5072392;28;20454;-58
2023/04/14 12:14:43;;;;;;;5.23;4.83;;;;;;;;;;5072092;28;20447;-57
2023/04/14 12:17:10;;;;;;;6.43;5.30;;;;;;;;;;5072075;28;20455;-57
2023/04/14 12:19:38;;;;;;;6.27;5.13;;;;;;;;;;5072309;28;20560;-57
2023/04/14 12:22:06;;;;;;;7.17;6.47;;;;;;;;;;5072290;28;20452;-57
2023/04/14 12:24:35;;;;;;;6.87;6.17;;;;;;;;;;5074109;28;20452;-58
2023/04/14 12:27:04;;;;;;;5.67;5.27;;;;;;;;;;5075681;28;20497;-57
2023/04/14 12:29:31;;;;;;;6.00;5.43;;;;;;;;;;5075484;28;20443;-58
2023/04/14 12:31:58;;;;;;;6.03;5.57;;;;;;;;;;5075483;28;20462;-60
2023/04/14 12:34:25;;;;;;;5.87;5.37;;;;;;;;;;5075674;28;20814;-57
2023/04/14 12:36:52;;;;;;;6.57;5.87;;;;;;;;;;5075586;28;20497;-58
2023/04/14 12:39:20;;;;;;;6.93;6.30;;;;;;;;;;5075411;28;20587;-58
2023/04/14 12:41:49;;;;;;;7.03;6.30;;;;;;;;;;5075337;28;20846;-58
2023/04/14 12:44:16;;;;;;;6.97;6.33;;;;;;;;;;5074996;28;20472;-53
2023/04/14 12:46:47;;;;;;;7.63;6.20;;;;;;;;;;5075249;28;20466;-57
2023/04/14 12:49:30;;;;;;;7.73;6.60;;;;;;;;;;5075260;28;20487;-60
2023/04/14 12:51:57;;;;;;;6.90;6.30;;;;;;;;;;5075375;28;20455;-57
2023/04/14 12:54:24;;;;;;;6.80;5.90;;;;;;;;;;5075253;28;20505;-59
2023/04/14 12:56:53;;;;;;;6.93;6.30;;;;;;;;;;5075018;28;20459;-58
2023/04/14 12:59:20;;;;;;;7.53;6.83;;;;;;;;;;5075150;28;20503;-58
2023/04/14 13:01:47;;;;;;;7.23;6.57;;;;;;;;;;5075008;28;20901;-58
2023/04/14 13:04:14;;;;;;;9.27;8.23;;;;;;;;;;5074934;28;20450;-56
2023/04/14 13:06:41;;;;;;;9.97;9.00;;;;;;;;;;5074846;28;20522;-58
2023/04/14 13:09:08;;;;;;;8.70;7.30;;;;;;;;;;5074752;28;20982;-59
2023/04/14 13:11:35;;;;;;;8.70;8.00;;;;;;;;;;5074790;28;20538;-58
2023/04/14 13:14:03;;;;;;;9.00;7.03;;;;;;;;;;5074889;28;20501;-58
2023/04/14 13:16:30;;;;;;;11.10;7.30;;;;;;;;;;5074880;28;20444;-59
2023/04/14 13:18:57;;;;;;;11.13;7.10;;;;;;;;;;5074577;28;21023;-58
2023/04/14 13:21:24;;;;;;;7.63;6.97;;;;;;;;;;5074658;28;20447;-58
2023/04/14 13:23:51;;;;;;;7.50;6.73;;;;;;;;;;5074428;28;20451;-58
2023/04/14 13:26:18;;;;;;;9.17;7.20;;;;;;;;;;5074450;28;20516;-57
2023/04/14 13:28:46;;;;;;;8.53;7.70;;;;;;;;;;5074316;28;20951;-58
2023/04/14 13:31:16;;;;;;;9.40;7.30;;;;;;;;;;5074378;28;20563;-58
2023/04/14 13:33:44;;;;;;;8.20;7.43;;;;;;;;;;5074349;28;20548;-58
2023/04/14 13:36:11;;;;;;;10.60;8.00;;;;;;;;;;5073790;28;20452;-58
2023/04/14 13:38:38;;;;;;;7.80;7.10;;;;;;;;;;5074117;28;20567;-58
2023/04/14 13:41:05;;;;;;;7.70;7.00;;;;;;;;;;5074227;28;20889;-58
2023/04/14 13:43:32;;;;;;;8.87;7.97;;;;;;;;;;5074057;28;20480;-59
2023/04/14 13:45:59;;;;;;;8.63;7.73;;;;;;;;;;5074211;28;20955;-58
2023/04/14 13:48:28;;;;;;;9.03;8.13;;;;;;;;;;5074087;28;20525;-57
2023/04/14 13:50:55;;;;;;;9.40;8.50;;;;;;;;;;5073941;28;20444;-59
2023/04/14 13:53:22;;;;;;;8.47;7.67;;;;;;;;;;5074182;28;20451;-58
2023/04/14 13:55:49;;;;;;;8.27;7.53;;;;;;;;;;5073987;28;20443;-58
2023/04/14 13:58:16;;;;;;;8.57;7.77;;;;;;;;;;5073693;28;20966;-58
2023/04/14 14:00:43;;;;;;;7.40;6.70;;;;;;;;;;5073883;28;20452;-58
2023/04/14 14:03:10;;;;;;;8.67;7.23;;;;;;;;;;5073755;28;20448;-58
2023/04/14 14:05:38;;;;;;;9.30;7.27;;;;;;;;;;5073571;28;20448;-58
2023/04/14 14:08:05;;;;;;;6.60;6.00;;;;;;;;;;5073496;28;21049;-57
2023/04/14 14:10:32;;;;;;;6.70;6.10;;;;;;;;;;5073748;28;20452;-58
2023/04/14 14:12:59;;;;;;;7.50;6.33;;;;;;;;;;5073540;28;20448;-56
2023/04/14 14:15:25;;;;;;;6.97;6.33;;;;;;;;;;5073530;28;20448;-57
2023/04/14 14:17:53;;;;;;;7.03;6.10;;;;;;;;;;5073585;28;20538;-57
2023/04/14 14:20:20;;;;;;;10.17;6.67;;;;;;;;;;5073307;28;20482;-58
2023/04/14 14:22:49;;;;;;;7.90;7.20;;;;;;;;;;5073523;28;20542;-58
2023/04/14 14:25:16;;;;;;;6.63;6.03;;;;;;;;;;5073462;28;20458;-58
2023/04/14 14:27:43;;;;;;;7.37;6.60;;;;;;;;;;5073457;28;20497;-57
2023/04/14 14:30:11;;;;;;;6.17;5.63;;;;;;;;;;5073046;28;21004;-59
2023/04/14 14:32:37;;;;;;;7.07;6.47;;;;;;;;;;5072920;28;20547;-58
2023/04/14 14:35:05;;;;;;;7.30;6.43;;;;;;;;;;5073230;28;20538;-59
2023/04/14 14:37:31;;;;;;;7.87;6.63;;;;;;;;;;5073120;28;20535;-58
2023/04/14 14:40:01;;;;;;;6.93;6.27;;;;;;;;;;5072851;28;20574;-58
2023/04/14 14:42:28;;;;;;;6.43;5.83;;;;;;;;;;5073064;28;20531;-57